sensor_id;sensor_type;location;lat;lon;timestamp;temperature;humidity
1351;DHT22;669;50.206;9.998;2023-04-06T00:02:11;-0.60;65.90
1351;DHT22;669;50.206;9.998;2023-04-06T00:04:39;-0.60;65.50
1351;DHT22;669;50.206;9.998;2023-04-06T00:07:08;-0.60;65.40
1351;DHT22;669;50.206;9.998;2023-04-06T00:09:36;-0.60;65.90
1351;DHT22;669;50.206;9.998;2023-04-06T00:12:04;-0.60;65.40
1351;DHT22;669;50.206;9.998;2023-04-06T00:14:32;-0.60;65.40
1351;DHT22;669;50.206;9.998;2023-04-06T00:17:00;-0.60;65.40
1351;DHT22;669;50.206;9.998;2023-04-06T00:19:28;-0.70;65.30
1351;DHT22;669;50.206;9.998;2023-04-06T00:21:56;-0.60;65.80
1351;DHT22;669;50.206;9.998;2023-04-06T00:24:25;-0.70;66.20
1351;DHT22;669;50.206;9.998;2023-04-06T00:26:53;-0.50;64.80
1351;DHT22;669;50.206;9.998;2023-04-06T00:29:21;-0.50;62.90
1351;DHT22;669;50.206;9.998;2023-04-06T00:31:49;-0.50;62.00
1351;DHT22;669;50.206;9.998;2023-04-06T00:34:17;-0.50;61.50
1351;DHT22;669;50.206;9.998;2023-04-06T00:36:45;-0.50;61.50
1351;DHT22;669;50.206;9.998;2023-04-06T00:39:13;-0.50;61.80
1351;DHT22;669;50.206;9.998;2023-04-06T00:41:46;-0.50;63.50
1351;DHT22;669;50.206;9.998;2023-04-06T00:44:16;-0.50;65.50
1351;DHT22;669;50.206;9.998;2023-04-06T00:46:44;-0.50;66.30
1351;DHT22;669;50.206;9.998;2023-04-06T00:49:12;-0.60;66.80
1351;DHT22;669;50.206;9.998;2023-04-06T00:51:40;-0.60;67.90
1351;DHT22;669;50.206;9.998;2023-04-06T00:54:08;-0.70;69.30
1351;DHT22;669;50.206;9.998;2023-04-06T00:56:36;-0.70;70.00
1351;DHT22;669;50.206;9.998;2023-04-06T00:59:05;-0.80;70.00
1351;DHT22;669;50.206;9.998;2023-04-06T01:01:34;-0.80;69.20
1351;DHT22;669;50.206;9.998;2023-04-06T01:04:02;-0.90;69.00
1351;DHT22;669;50.206;9.998;2023-04-06T01:06:30;-1.00;69.80
1351;DHT22;669;50.206;9.998;2023-04-06T01:08:58;-1.00;70.30
1351;DHT22;669;50.206;9.998;2023-04-06T01:11:26;-1.00;69.80
1351;DHT22;669;50.206;9.998;2023-04-06T01:13:54;-1.10;69.50
1351;DHT22;669;50.206;9.998;2023-04-06T01:16:24;-1.10;69.70
1351;DHT22;669;50.206;9.998;2023-04-06T01:18:52;-1.20;69.70
1351;DHT22;669;50.206;9.998;2023-04-06T01:21:20;-1.20;69.60
1351;DHT22;669;50.206;9.998;2023-04-06T01:23:49;-1.20;70.00
1351;DHT22;669;50.206;9.998;2023-04-06T01:26:17;-1.20;70.00
1351;DHT22;669;50.206;9.998;2023-04-06T01:28:45;-1.20;69.70
1351;DHT22;669;50.206;9.998;2023-04-06T01:31:12;-1.10;69.70
1351;DHT22;669;50.206;9.998;2023-04-06T01:33:41;-1.10;69.10
1351;DHT22;669;50.206;9.998;2023-04-06T01:36:09;-1.10;69.70
1351;DHT22;669;50.206;9.998;2023-04-06T01:38:37;-1.10;69.30
1351;DHT22;669;50.206;9.998;2023-04-06T01:41:06;-1.10;69.70
1351;DHT22;669;50.206;9.998;2023-04-06T01:43:34;-1.10;69.70
1351;DHT22;669;50.206;9.998;2023-04-06T01:46:02;-1.10;70.50
1351;DHT22;669;50.206;9.998;2023-04-06T01:48:31;-1.10;69.70
1351;DHT22;669;50.206;9.998;2023-04-06T01:50:59;-1.20;69.70
1351;DHT22;669;50.206;9.998;2023-04-06T01:53:26;-1.20;69.90
1351;DHT22;669;50.206;9.998;2023-04-06T01:55:55;-1.20;69.20
1351;DHT22;669;50.206;9.998;2023-04-06T01:58:24;-1.20;69.60
1351;DHT22;669;50.206;9.998;2023-04-06T02:00:52;-1.30;69.50
1351;DHT22;669;50.206;9.998;2023-04-06T02:03:21;-1.30;69.50
1351;DHT22;669;50.206;9.998;2023-04-06T02:05:49;-1.30;71.90
1351;DHT22;669;50.206;9.998;2023-04-06T02:08:16;-1.40;72.20
1351;DHT22;669;50.206;9.998;2023-04-06T02:10:44;-1.40;73.40
1351;DHT22;669;50.206;9.998;2023-04-06T02:13:12;-1.50;74.40
1351;DHT22;669;50.206;9.998;2023-04-06T02:15:41;-1.50;74.10
1351;DHT22;669;50.206;9.998;2023-04-06T02:18:09;-1.50;73.80
1351;DHT22;669;50.206;9.998;2023-04-06T02:20:37;-1.50;73.70
1351;DHT22;669;50.206;9.998;2023-04-06T02:23:05;-1.50;73.80
1351;DHT22;669;50.206;9.998;2023-04-06T02:25:33;-1.40;72.80
1351;DHT22;669;50.206;9.998;2023-04-06T02:28:01;-1.40;73.00
1351;DHT22;669;50.206;9.998;2023-04-06T02:30:29;-1.50;73.20
1351;DHT22;669;50.206;9.998;2023-04-06T02:33:01;-1.50;72.90
1351;DHT22;669;50.206;9.998;2023-04-06T02:35:30;-1.50;73.40
1351;DHT22;669;50.206;9.998;2023-04-06T02:37:58;-1.60;71.90
1351;DHT22;669;50.206;9.998;2023-04-06T02:40:26;-1.60;72.00
1351;DHT22;669;50.206;9.998;2023-04-06T02:42:54;-1.60;71.70
1351;DHT22;669;50.206;9.998;2023-04-06T02:45:21;-1.60;72.20
1351;DHT22;669;50.206;9.998;2023-04-06T02:47:49;-1.60;72.90
1351;DHT22;669;50.206;9.998;2023-04-06T02:50:19;-1.70;71.40
1351;DHT22;669;50.206;9.998;2023-04-06T02:52:47;-1.70;70.30
1351;DHT22;669;50.206;9.998;2023-04-06T02:55:15;-1.70;69.90
1351;DHT22;669;50.206;9.998;2023-04-06T02:57:43;-1.70;69.70
1351;DHT22;669;50.206;9.998;2023-04-06T03:00:12;-1.70;69.90
1351;DHT22;669;50.206;9.998;2023-04-06T03:02:40;-1.70;72.80
1351;DHT22;669;50.206;9.998;2023-04-06T03:05:08;-1.70;72.80
1351;DHT22;669;50.206;9.998;2023-04-06T03:07:37;-1.80;73.70
1351;DHT22;669;50.206;9.998;2023-04-06T03:10:06;-1.80;74.10
1351;DHT22;669;50.206;9.998;2023-04-06T03:12:34;-1.80;72.90
1351;DHT22;669;50.206;9.998;2023-04-06T03:15:02;-1.80;73.00
1351;DHT22;669;50.206;9.998;2023-04-06T03:17:30;-1.90;73.60
1351;DHT22;669;50.206;9.998;2023-04-06T03:19:58;-1.90;73.10
1351;DHT22;669;50.206;9.998;2023-04-06T03:22:26;-1.90;72.90
1351;DHT22;669;50.206;9.998;2023-04-06T03:24:55;-1.90;72.70
1351;DHT22;669;50.206;9.998;2023-04-06T03:27:23;-1.90;72.80
1351;DHT22;669;50.206;9.998;2023-04-06T03:29:51;-1.90;73.70
1351;DHT22;669;50.206;9.998;2023-04-06T03:32:19;-1.90;73.70
1351;DHT22;669;50.206;9.998;2023-04-06T03:34:47;-1.90;73.70
1351;DHT22;669;50.206;9.998;2023-04-06T03:37:15;-1.90;74.00
1351;DHT22;669;50.206;9.998;2023-04-06T03:39:43;-1.90;73.80
1351;DHT22;669;50.206;9.998;2023-04-06T03:42:12;-1.80;73.80
1351;DHT22;669;50.206;9.998;2023-04-06T03:44:40;-1.80;72.60
1351;DHT22;669;50.206;9.998;2023-04-06T03:47:08;-1.80;72.40
1351;DHT22;669;50.206;9.998;2023-04-06T03:49:36;-1.80;72.50
1351;DHT22;669;50.206;9.998;2023-04-06T03:52:06;-1.90;73.30
1351;DHT22;669;50.206;9.998;2023-04-06T03:54:34;-2.00;73.60
1351;DHT22;669;50.206;9.998;2023-04-06T03:57:01;-2.00;73.60
1351;DHT22;669;50.206;9.998;2023-04-06T03:59:31;-2.00;74.20
1351;DHT22;669;50.206;9.998;2023-04-06T04:01:59;-1.90;74.40
1351;DHT22;669;50.206;9.998;2023-04-06T04:04:27;-1.90;73.90
1351;DHT22;669;50.206;9.998;2023-04-06T04:06:54;-1.90;74.20
1351;DHT22;669;50.206;9.998;2023-04-06T04:09:22;-1.90;74.10
1351;DHT22;669;50.206;9.998;2023-04-06T04:11:50;-1.90;73.90
1351;DHT22;669;50.206;9.998;2023-04-06T04:14:18;-1.90;73.70
1351;DHT22;669;50.206;9.998;2023-04-06T04:16:47;-1.90;74.50
1351;DHT22;669;50.206;9.998;2023-04-06T04:19:15;-1.80;74.80
1351;DHT22;669;50.206;9.998;2023-04-06T04:21:44;-1.80;74.10
1351;DHT22;669;50.206;9.998;2023-04-06T04:24:13;-1.80;74.10
1351;DHT22;669;50.206;9.998;2023-04-06T04:26:40;-1.80;73.80
1351;DHT22;669;50.206;9.998;2023-04-06T04:29:08;-1.80;73.00
1351;DHT22;669;50.206;9.998;2023-04-06T04:31:36;-1.70;72.70
1351;DHT22;669;50.206;9.998;2023-04-06T04:34:06;-1.70;72.30
1351;DHT22;669;50.206;9.998;2023-04-06T04:36:34;-1.70;72.20
1351;DHT22;669;50.206;9.998;2023-04-06T04:39:02;-1.70;72.60
1351;DHT22;669;50.206;9.998;2023-04-06T04:41:30;-1.60;72.90
1351;DHT22;669;50.206;9.998;2023-04-06T04:43:58;-1.60;72.80
1351;DHT22;669;50.206;9.998;2023-04-06T04:46:26;-1.60;72.50
1351;DHT22;669;50.206;9.998;2023-04-06T04:48:54;-1.60;72.80
1351;DHT22;669;50.206;9.998;2023-04-06T04:51:23;-1.60;72.60
1351;DHT22;669;50.206;9.998;2023-04-06T04:53:51;-1.60;73.10
1351;DHT22;669;50.206;9.998;2023-04-06T04:56:19;-1.60;73.00
1351;DHT22;669;50.206;9.998;2023-04-06T04:58:47;-1.60;73.10
1351;DHT22;669;50.206;9.998;2023-04-06T05:01:15;-1.60;72.90
1351;DHT22;669;50.206;9.998;2023-04-06T05:03:42;-1.60;72.70
1351;DHT22;669;50.206;9.998;2023-04-06T05:06:11;-1.60;73.20
1351;DHT22;669;50.206;9.998;2023-04-06T05:08:40;-1.70;72.30
1351;DHT22;669;50.206;9.998;2023-04-06T05:11:08;-1.60;71.70
1351;DHT22;669;50.206;9.998;2023-04-06T05:13:36;-1.60;71.10
1351;DHT22;669;50.206;9.998;2023-04-06T05:16:04;-1.70;72.90
1351;DHT22;669;50.206;9.998;2023-04-06T05:18:33;-1.80;73.20
1351;DHT22;669;50.206;9.998;2023-04-06T05:21:01;-1.70;74.90
1351;DHT22;669;50.206;9.998;2023-04-06T05:23:29;-1.50;75.30
1351;DHT22;669;50.206;9.998;2023-04-06T05:25:58;-1.10;74.40
1351;DHT22;669;50.206;9.998;2023-04-06T05:28:26;-0.70;73.60
1351;DHT22;669;50.206;9.998;2023-04-06T05:30:54;-0.40;71.70
1351;DHT22;669;50.206;9.998;2023-04-06T05:33:23;-0.10;70.20
1351;DHT22;669;50.206;9.998;2023-04-06T05:35:51;0.30;70.40
1351;DHT22;669;50.206;9.998;2023-04-06T05:38:19;0.60;68.10
1351;DHT22;669;50.206;9.998;2023-04-06T05:40:47;1.00;66.10
1351;DHT22;669;50.206;9.998;2023-04-06T05:43:16;1.40;64.20
1351;DHT22;669;50.206;9.998;2023-04-06T05:45:48;1.80;62.70
1351;DHT22;669;50.206;9.998;2023-04-06T05:48:15;2.10;60.80
1351;DHT22;669;50.206;9.998;2023-04-06T05:50:48;2.30;58.40
1351;DHT22;669;50.206;9.998;2023-04-06T05:53:16;2.40;58.60
1351;DHT22;669;50.206;9.998;2023-04-06T05:55:44;2.60;57.20
1351;DHT22;669;50.206;9.998;2023-04-06T05:58:11;2.70;58.00
1351;DHT22;669;50.206;9.998;2023-04-06T06:00:41;2.90;57.20
1351;DHT22;669;50.206;9.998;2023-04-06T06:03:10;3.10;54.80
1351;DHT22;669;50.206;9.998;2023-04-06T06:05:38;3.20;54.80
1351;DHT22;669;50.206;9.998;2023-04-06T06:08:06;3.30;56.50
1351;DHT22;669;50.206;9.998;2023-04-06T06:10:34;3.50;55.00
1351;DHT22;669;50.206;9.998;2023-04-06T06:13:02;3.70;55.20
1351;DHT22;669;50.206;9.998;2023-04-06T06:15:30;3.90;54.80
1351;DHT22;669;50.206;9.998;2023-04-06T06:17:59;3.90;53.80
1351;DHT22;669;50.206;9.998;2023-04-06T06:20:30;4.10;53.80
1351;DHT22;669;50.206;9.998;2023-04-06T06:23:03;4.20;53.20
1351;DHT22;669;50.206;9.998;2023-04-06T06:25:47;4.40;51.40
1351;DHT22;669;50.206;9.998;2023-04-06T06:28:17;4.70;52.00
1351;DHT22;669;50.206;9.998;2023-04-06T06:30:56;5.00;50.50
1351;DHT22;669;50.206;9.998;2023-04-06T06:33:33;5.40;49.50
1351;DHT22;669;50.206;9.998;2023-04-06T06:36:16;5.70;50.90
1351;DHT22;669;50.206;9.998;2023-04-06T06:38:50;6.00;48.10
1351;DHT22;669;50.206;9.998;2023-04-06T06:41:26;6.10;45.90
1351;DHT22;669;50.206;9.998;2023-04-06T06:44:00;6.30;47.10
1351;DHT22;669;50.206;9.998;2023-04-06T06:46:37;6.50;49.40
1351;DHT22;669;50.206;9.998;2023-04-06T06:49:12;6.60;49.00
1351;DHT22;669;50.206;9.998;2023-04-06T06:51:52;6.60;50.90
1351;DHT22;669;50.206;9.998;2023-04-06T06:54:32;6.80;53.10
1351;DHT22;669;50.206;9.998;2023-04-06T06:57:07;7.10;48.30
1351;DHT22;669;50.206;9.998;2023-04-06T06:59:37;7.70;44.50
1351;DHT22;669;50.206;9.998;2023-04-06T07:02:27;8.10;40.50
1351;DHT22;669;50.206;9.998;2023-04-06T07:05:12;8.20;41.00
1351;DHT22;669;50.206;9.998;2023-04-06T07:08:01;8.60;36.00
1351;DHT22;669;50.206;9.998;2023-04-06T07:10:39;8.90;37.50
1351;DHT22;669;50.206;9.998;2023-04-06T07:13:12;8.90;33.60
1351;DHT22;669;50.206;9.998;2023-04-06T07:15:52;9.20;32.60
1351;DHT22;669;50.206;9.998;2023-04-06T07:18:26;9.00;30.10
1351;DHT22;669;50.206;9.998;2023-04-06T07:21:08;9.10;32.50
1351;DHT22;669;50.206;9.998;2023-04-06T07:23:45;9.40;32.80
1351;DHT22;669;50.206;9.998;2023-04-06T07:26:21;9.70;31.30
1351;DHT22;669;50.206;9.998;2023-04-06T07:28:59;10.00;29.90
1351;DHT22;669;50.206;9.998;2023-04-06T07:31:33;10.20;29.70
1351;DHT22;669;50.206;9.998;2023-04-06T07:34:04;10.10;27.80
1351;DHT22;669;50.206;9.998;2023-04-06T07:36:38;10.20;29.00
1351;DHT22;669;50.206;9.998;2023-04-06T07:39:25;10.30;29.00
1351;DHT22;669;50.206;9.998;2023-04-06T07:42:27;10.50;27.70
1351;DHT22;669;50.206;9.998;2023-04-06T07:45:01;10.70;26.60
1351;DHT22;669;50.206;9.998;2023-04-06T07:47:39;11.10;27.20
1351;DHT22;669;50.206;9.998;2023-04-06T07:50:29;11.30;26.70
1351;DHT22;669;50.206;9.998;2023-04-06T07:53:27;11.50;25.70
1351;DHT22;669;50.206;9.998;2023-04-06T07:56:10;12.00;26.50
1351;DHT22;669;50.206;9.998;2023-04-06T07:58:51;12.30;25.20
1351;DHT22;669;50.206;9.998;2023-04-06T08:01:39;12.50;25.30
1351;DHT22;669;50.206;9.998;2023-04-06T08:04:18;12.50;25.60
1351;DHT22;669;50.206;9.998;2023-04-06T08:06:58;12.50;24.10
1351;DHT22;669;50.206;9.998;2023-04-06T08:09:38;12.40;24.10
1351;DHT22;669;50.206;9.998;2023-04-06T08:12:23;12.40;24.20
1351;DHT22;669;50.206;9.998;2023-04-06T08:15:01;12.30;25.20
1351;DHT22;669;50.206;9.998;2023-04-06T08:17:42;12.70;23.80
1351;DHT22;669;50.206;9.998;2023-04-06T08:20:32;12.90;25.20
1351;DHT22;669;50.206;9.998;2023-04-06T08:23:25;13.10;24.90
1351;DHT22;669;50.206;9.998;2023-04-06T08:26:05;13.30;25.00
1351;DHT22;669;50.206;9.998;2023-04-06T08:28:39;13.60;24.20
1351;DHT22;669;50.206;9.998;2023-04-06T08:31:20;13.60;24.20
1351;DHT22;669;50.206;9.998;2023-04-06T08:36:42;13.80;23.30
1351;DHT22;669;50.206;9.998;2023-04-06T08:39:27;13.90;24.50
1351;DHT22;669;50.206;9.998;2023-04-06T08:42:20;14.00;20.90
1351;DHT22;669;50.206;9.998;2023-04-06T08:45:01;14.20;22.40
1351;DHT22;669;50.206;9.998;2023-04-06T08:48:18;14.40;21.80
1351;DHT22;669;50.206;9.998;2023-04-06T08:51:23;14.50;22.50
1351;DHT22;669;50.206;9.998;2023-04-06T08:54:13;14.50;23.60
1351;DHT22;669;50.206;9.998;2023-04-06T08:57:02;14.50;21.30
1351;DHT22;669;50.206;9.998;2023-04-06T08:59:39;14.40;21.30
1351;DHT22;669;50.206;9.998;2023-04-06T09:02:24;14.50;21.90
1351;DHT22;669;50.206;9.998;2023-04-06T09:05:04;14.70;23.50
1351;DHT22;669;50.206;9.998;2023-04-06T09:07:42;14.70;21.90
1351;DHT22;669;50.206;9.998;2023-04-06T09:10:39;14.80;23.90
1351;DHT22;669;50.206;9.998;2023-04-06T09:13:43;14.90;24.20
1351;DHT22;669;50.206;9.998;2023-04-06T09:16:27;15.30;23.90
1351;DHT22;669;50.206;9.998;2023-04-06T09:19:05;15.60;21.90
1351;DHT22;669;50.206;9.998;2023-04-06T09:21:49;15.80;22.20
1351;DHT22;669;50.206;9.998;2023-04-06T09:24:23;15.70;21.30
1351;DHT22;669;50.206;9.998;2023-04-06T09:27:03;15.30;20.90
1351;DHT22;669;50.206;9.998;2023-04-06T09:29:49;15.20;23.00
1351;DHT22;669;50.206;9.998;2023-04-06T09:32:28;15.40;21.10
1351;DHT22;669;50.206;9.998;2023-04-06T09:35:09;15.20;24.20
1351;DHT22;669;50.206;9.998;2023-04-06T09:37:41;15.40;24.20
1351;DHT22;669;50.206;9.998;2023-04-06T09:40:20;15.80;22.10
1351;DHT22;669;50.206;9.998;2023-04-06T09:42:54;16.10;22.70
1351;DHT22;669;50.206;9.998;2023-04-06T09:45:30;16.60;21.60
1351;DHT22;669;50.206;9.998;2023-04-06T09:48:15;16.70;20.30
1351;DHT22;669;50.206;9.998;2023-04-06T09:51:03;16.50;19.20
1351;DHT22;669;50.206;9.998;2023-04-06T09:54:02;16.50;20.20
1351;DHT22;669;50.206;9.998;2023-04-06T09:56:41;16.30;20.10
1351;DHT22;669;50.206;9.998;2023-04-06T09:59:38;16.10;19.40
1351;DHT22;669;50.206;9.998;2023-04-06T10:02:27;16.00;21.60
1351;DHT22;669;50.206;9.998;2023-04-06T10:05:11;16.20;20.00
1351;DHT22;669;50.206;9.998;2023-04-06T10:07:56;16.20;18.00
1351;DHT22;669;50.206;9.998;2023-04-06T10:10:42;16.10;18.20
1351;DHT22;669;50.206;9.998;2023-04-06T10:13:29;15.90;19.50
1351;DHT22;669;50.206;9.998;2023-04-06T10:16:17;15.80;20.10
1351;DHT22;669;50.206;9.998;2023-04-06T10:19:01;15.70;19.60
1351;DHT22;669;50.206;9.998;2023-04-06T10:21:40;15.90;17.80
1351;DHT22;669;50.206;9.998;2023-04-06T10:24:17;16.00;19.80
1351;DHT22;669;50.206;9.998;2023-04-06T10:27:03;15.90;19.20
1351;DHT22;669;50.206;9.998;2023-04-06T10:30:02;15.90;18.50
1351;DHT22;669;50.206;9.998;2023-04-06T10:32:46;15.70;19.60
1351;DHT22;669;50.206;9.998;2023-04-06T10:35:18;16.00;19.80
1351;DHT22;669;50.206;9.998;2023-04-06T10:38:02;16.10;19.90
1351;DHT22;669;50.206;9.998;2023-04-06T10:40:54;15.70;17.70
1351;DHT22;669;50.206;9.998;2023-04-06T10:43:38;15.70;19.60
1351;DHT22;669;50.206;9.998;2023-04-06T10:46:25;16.00;20.80
1351;DHT22;669;50.206;9.998;2023-04-06T10:49:09;16.60;20.50
1351;DHT22;669;50.206;9.998;2023-04-06T10:51:57;16.70;19.00
1351;DHT22;669;50.206;9.998;2023-04-06T10:54:41;16.80;17.90
1351;DHT22;669;50.206;9.998;2023-04-06T10:57:33;16.70;18.30
1351;DHT22;669;50.206;9.998;2023-04-06T11:00:07;16.80;20.30
1351;DHT22;669;50.206;9.998;2023-04-06T11:02:42;17.10;19.10
1351;DHT22;669;50.206;9.998;2023-04-06T11:05:27;17.10;18.60
1351;DHT22;669;50.206;9.998;2023-04-06T11:08:03;16.80;18.20
1351;DHT22;669;50.206;9.998;2023-04-06T11:10:45;16.70;20.30
1351;DHT22;669;50.206;9.998;2023-04-06T11:13:26;16.60;17.60
1351;DHT22;669;50.206;9.998;2023-04-06T11:16:21;16.50;20.20
1351;DHT22;669;50.206;9.998;2023-04-06T11:19:03;16.50;17.70
1351;DHT22;669;50.206;9.998;2023-04-06T11:21:46;16.50;19.10
1351;DHT22;669;50.206;9.998;2023-04-06T11:24:31;16.80;18.60
1351;DHT22;669;50.206;9.998;2023-04-06T11:27:12;16.90;19.20
1351;DHT22;669;50.206;9.998;2023-04-06T11:29:53;17.00;17.60
1351;DHT22;669;50.206;9.998;2023-04-06T11:32:27;17.00;18.40
1351;DHT22;669;50.206;9.998;2023-04-06T11:35:03;17.10;19.30
1351;DHT22;669;50.206;9.998;2023-04-06T11:37:41;17.30;16.90
1351;DHT22;669;50.206;9.998;2023-04-06T11:40:22;17.60;17.60
1351;DHT22;669;50.206;9.998;2023-04-06T11:43:06;17.40;16.80
1351;DHT22;669;50.206;9.998;2023-04-06T11:45:42;17.10;17.70
1351;DHT22;669;50.206;9.998;2023-04-06T11:48:20;17.20;18.90
1351;DHT22;669;50.206;9.998;2023-04-06T11:51:03;16.70;19.50
1351;DHT22;669;50.206;9.998;2023-04-06T11:53:45;16.80;18.20
1351;DHT22;669;50.206;9.998;2023-04-06T11:56:36;16.80;18.30
1351;DHT22;669;50.206;9.998;2023-04-06T11:59:12;17.10;19.40
1351;DHT22;669;50.206;9.998;2023-04-06T12:02:09;17.20;20.60
1351;DHT22;669;50.206;9.998;2023-04-06T12:04:44;17.50;19.30
1351;DHT22;669;50.206;9.998;2023-04-06T12:07:19;17.50;20.00
1351;DHT22;669;50.206;9.998;2023-04-06T12:09:52;17.40;19.00
1351;DHT22;669;50.206;9.998;2023-04-06T12:12:22;17.00;20.50
1351;DHT22;669;50.206;9.998;2023-04-06T12:15:05;17.00;19.00
1351;DHT22;669;50.206;9.998;2023-04-06T12:17:40;17.00;17.80
1351;DHT22;669;50.206;9.998;2023-04-06T12:20:24;17.20;20.10
1351;DHT22;669;50.206;9.998;2023-04-06T12:23:02;17.40;20.30
1351;DHT22;669;50.206;9.998;2023-04-06T12:25:39;17.90;20.60
1351;DHT22;669;50.206;9.998;2023-04-06T12:28:11;17.80;18.70
1351;DHT22;669;50.206;9.998;2023-04-06T12:30:56;17.90;17.20
1351;DHT22;669;50.206;9.998;2023-04-06T12:33:35;17.80;18.60
1351;DHT22;669;50.206;9.998;2023-04-06T12:36:18;18.10;19.70
1351;DHT22;669;50.206;9.998;2023-04-06T12:39:01;18.30;18.00
1351;DHT22;669;50.206;9.998;2023-04-06T12:41:40;18.20;18.60
1351;DHT22;669;50.206;9.998;2023-04-06T12:44:13;18.10;18.20
1351;DHT22;669;50.206;9.998;2023-04-06T12:46:51;18.00;18.60
1351;DHT22;669;50.206;9.998;2023-04-06T12:49:45;17.80;16.90
1351;DHT22;669;50.206;9.998;2023-04-06T12:52:20;17.50;18.70
1351;DHT22;669;50.206;9.998;2023-04-06T12:54:58;17.40;17.00
1351;DHT22;669;50.206;9.998;2023-04-06T12:57:30;17.10;16.40
1351;DHT22;669;50.206;9.998;2023-04-06T13:00:22;16.90;18.20
1351;DHT22;669;50.206;9.998;2023-04-06T13:03:50;16.50;18.30
1351;DHT22;669;50.206;9.998;2023-04-06T13:06:11;16.20;18.00
1351;DHT22;669;50.206;9.998;2023-04-06T13:08:46;16.10;19.50
1351;DHT22;669;50.206;9.998;2023-04-06T13:11:26;16.20;18.20
1351;DHT22;669;50.206;9.998;2023-04-06T13:14:10;15.90;18.30
1351;DHT22;669;50.206;9.998;2023-04-06T13:16:51;15.70;19.70
1351;DHT22;669;50.206;9.998;2023-04-06T13:19:28;15.50;19.50
1351;DHT22;669;50.206;9.998;2023-04-06T13:22:10;15.80;22.20
1351;DHT22;669;50.206;9.998;2023-04-06T13:24:45;16.20;19.90
1351;DHT22;669;50.206;9.998;2023-04-06T13:27:18;16.20;20.00
1351;DHT22;669;50.206;9.998;2023-04-06T13:29:53;16.60;19.40
1351;DHT22;669;50.206;9.998;2023-04-06T13:32:35;16.60;20.20
1351;DHT22;669;50.206;9.998;2023-04-06T13:35:09;16.80;19.90
1351;DHT22;669;50.206;9.998;2023-04-06T13:37:46;16.60;18.50
1351;DHT22;669;50.206;9.998;2023-04-06T13:40:25;16.00;18.60
1351;DHT22;669;50.206;9.998;2023-04-06T13:43:03;15.60;18.70
1351;DHT22;669;50.206;9.998;2023-04-06T13:45:40;15.10;17.30
1351;DHT22;669;50.206;9.998;2023-04-06T13:48:22;15.00;19.90
1351;DHT22;669;50.206;9.998;2023-04-06T13:51:17;15.00;19.40
1351;DHT22;669;50.206;9.998;2023-04-06T13:53:59;15.00;18.60
1351;DHT22;669;50.206;9.998;2023-04-06T13:56:56;14.90;21.50
1351;DHT22;669;50.206;9.998;2023-04-06T13:59:40;15.30;20.80
1351;DHT22;669;50.206;9.998;2023-04-06T14:02:20;15.90;20.10
1351;DHT22;669;50.206;9.998;2023-04-06T14:05:02;16.40;20.60
1351;DHT22;669;50.206;9.998;2023-04-06T14:07:44;16.50;20.90
1351;DHT22;669;50.206;9.998;2023-04-06T14:10:36;16.20;18.20
1351;DHT22;669;50.206;9.998;2023-04-06T14:13:11;16.00;19.80
1351;DHT22;669;50.206;9.998;2023-04-06T14:15:55;15.80;19.70
1351;DHT22;669;50.206;9.998;2023-04-06T14:18:39;15.60;18.10
1351;DHT22;669;50.206;9.998;2023-04-06T14:21:16;15.70;17.30
1351;DHT22;669;50.206;9.998;2023-04-06T14:23:57;15.70;17.90
1351;DHT22;669;50.206;9.998;2023-04-06T14:26:43;15.60;19.20
1351;DHT22;669;50.206;9.998;2023-04-06T14:29:17;15.40;18.50
1351;DHT22;669;50.206;9.998;2023-04-06T14:31:58;15.10;18.10
1351;DHT22;669;50.206;9.998;2023-04-06T14:34:30;15.10;19.20
1351;DHT22;669;50.206;9.998;2023-04-06T14:37:08;15.30;19.10
1351;DHT22;669;50.206;9.998;2023-04-06T14:39:55;15.70;16.60
1351;DHT22;669;50.206;9.998;2023-04-06T14:42:39;15.70;17.70
1351;DHT22;669;50.206;9.998;2023-04-06T14:45:29;15.60;17.90
1351;DHT22;669;50.206;9.998;2023-04-06T14:48:25;15.40;19.40
1351;DHT22;669;50.206;9.998;2023-04-06T14:51:01;15.20;18.00
1351;DHT22;669;50.206;9.998;2023-04-06T14:53:54;15.10;19.10
1351;DHT22;669;50.206;9.998;2023-04-06T14:56:38;15.10;19.50
1351;DHT22;669;50.206;9.998;2023-04-06T14:59:16;14.90;21.80
1351;DHT22;669;50.206;9.998;2023-04-06T15:01:50;14.50;19.70
1351;DHT22;669;50.206;9.998;2023-04-06T15:04:28;14.30;19.10
1351;DHT22;669;50.206;9.998;2023-04-06T15:07:20;14.20;20.00
1351;DHT22;669;50.206;9.998;2023-04-06T15:09:57;14.20;19.50
1351;DHT22;669;50.206;9.998;2023-04-06T15:12:44;14.00;19.50
1351;DHT22;669;50.206;9.998;2023-04-06T15:15:20;13.70;19.40
1351;DHT22;669;50.206;9.998;2023-04-06T15:17:57;13.50;18.90
1351;DHT22;669;50.206;9.998;2023-04-06T15:20:35;13.40;19.70
1351;DHT22;669;50.206;9.998;2023-04-06T15:23:19;13.40;20.10
1351;DHT22;669;50.206;9.998;2023-04-06T15:25:53;13.40;18.70
1351;DHT22;669;50.206;9.998;2023-04-06T15:28:36;13.50;19.50
1351;DHT22;669;50.206;9.998;2023-04-06T15:31:19;13.50;19.70
1351;DHT22;669;50.206;9.998;2023-04-06T15:34:11;13.50;19.80
1351;DHT22;669;50.206;9.998;2023-04-06T15:36:50;13.60;19.80
1351;DHT22;669;50.206;9.998;2023-04-06T15:39:33;13.40;21.50
1351;DHT22;669;50.206;9.998;2023-04-06T15:42:14;13.30;21.90
1351;DHT22;669;50.206;9.998;2023-04-06T15:44:50;13.20;21.60
1351;DHT22;669;50.206;9.998;2023-04-06T15:47:50;13.10;23.10
1351;DHT22;669;50.206;9.998;2023-04-06T15:50:42;13.10;20.80
1351;DHT22;669;50.206;9.998;2023-04-06T15:53:20;13.10;21.20
1351;DHT22;669;50.206;9.998;2023-04-06T15:56:12;13.20;21.40
1351;DHT22;669;50.206;9.998;2023-04-06T15:58:46;13.20;20.30
1351;DHT22;669;50.206;9.998;2023-04-06T16:01:43;13.20;20.00
1351;DHT22;669;50.206;9.998;2023-04-06T16:04:15;13.00;19.90
1351;DHT22;669;50.206;9.998;2023-04-06T16:06:53;12.80;19.40
1351;DHT22;669;50.206;9.998;2023-04-06T16:09:39;12.70;21.00
1351;DHT22;669;50.206;9.998;2023-04-06T16:12:14;12.50;19.80
1351;DHT22;669;50.206;9.998;2023-04-06T16:14:49;12.50;20.30
1351;DHT22;669;50.206;9.998;2023-04-06T16:17:29;12.30;21.00
1351;DHT22;669;50.206;9.998;2023-04-06T16:20:07;12.30;21.50
1351;DHT22;669;50.206;9.998;2023-04-06T16:22:44;12.20;21.70
1351;DHT22;669;50.206;9.998;2023-04-06T16:25:25;12.10;21.90
1351;DHT22;669;50.206;9.998;2023-04-06T16:28:05;12.10;21.70
1351;DHT22;669;50.206;9.998;2023-04-06T16:30:47;12.00;21.90
1351;DHT22;669;50.206;9.998;2023-04-06T16:33:39;11.90;23.20
1351;DHT22;669;50.206;9.998;2023-04-06T16:36:22;11.80;22.10
1351;DHT22;669;50.206;9.998;2023-04-06T16:39:01;11.80;21.30
1351;DHT22;669;50.206;9.998;2023-04-06T16:41:36;11.70;21.20
1351;DHT22;669;50.206;9.998;2023-04-06T16:44:13;11.60;22.10
1351;DHT22;669;50.206;9.998;2023-04-06T16:46:48;11.60;22.50
1351;DHT22;669;50.206;9.998;2023-04-06T16:49:30;11.50;22.60
1351;DHT22;669;50.206;9.998;2023-04-06T16:52:11;11.40;22.60
1351;DHT22;669;50.206;9.998;2023-04-06T16:54:58;11.40;23.90
1351;DHT22;669;50.206;9.998;2023-04-06T16:57:42;11.30;23.00
1351;DHT22;669;50.206;9.998;2023-04-06T17:00:20;11.20;22.30
1351;DHT22;669;50.206;9.998;2023-04-06T17:02:57;11.20;22.20
1351;DHT22;669;50.206;9.998;2023-04-06T17:05:35;11.10;25.40
1351;DHT22;669;50.206;9.998;2023-04-06T17:08:13;11.00;23.70
1351;DHT22;669;50.206;9.998;2023-04-06T17:10:57;10.90;24.90
1351;DHT22;669;50.206;9.998;2023-04-06T17:13:35;10.80;26.50
1351;DHT22;669;50.206;9.998;2023-04-06T17:16:12;10.60;26.80
1351;DHT22;669;50.206;9.998;2023-04-06T17:19:05;10.50;28.80
1351;DHT22;669;50.206;9.998;2023-04-06T17:22:15;10.30;30.80
1351;DHT22;669;50.206;9.998;2023-04-06T17:24:51;10.10;33.80